MKJP/KIN METAR and TAF weather

Enter ICAO airport designator
Station Type Date Time Source
MKJP METAR 2019/02/20 23:00 UTC NOAA

MKJP 202300Z 11019KT 9999 FEW022 27/18 Q1014


Station Type Date Time Source
MKJP Decoded METAR 2019/02/20 23:00 UTC NOAA

Kingston / Norman Manley, Jamaica (MKJP) 17-56N 076-47W 14M
Feb 20, 2019 - 06:00 PM EST / 2019.02.20 2300 UTC
Wind: from the ESE (110 degrees) at 22 MPH (19 KT):0
Visibility: greater than 7 mile(s):0
Sky conditions: mostly clear
Temperature: 80 F (27 C)
Dew Point: 64 F (18 C)
Relative Humidity: 57%
Pressure (altimeter): 29.94 in. Hg (1014 hPa)
ob: MKJP 202300Z 11019KT 9999 FEW022 27/18 Q1014
cycle: 23

Station Type Date Time Source
MKJP TAF 2019/02/20 18:17 UTC NOAA

TAF MKJP 201715Z 2018/2118 13025KT 9999 FEW022
BECMG 2105/2107 10012KT
BECMG 2113/2115 14025G35KT


Example: see airport list